sensor_id;sensor_type;location;lat;lon;timestamp;temperature;humidity
75451;DHT22;64029;48.244;9.188;2023-10-31T00:00:11;10.20;90.90
75451;DHT22;64029;48.244;9.188;2023-10-31T00:02:38;10.20;90.80
75451;DHT22;64029;48.244;9.188;2023-10-31T00:05:06;10.10;90.80
75451;DHT22;64029;48.244;9.188;2023-10-31T00:07:33;10.10;90.90
75451;DHT22;64029;48.244;9.188;2023-10-31T00:10:00;10.10;90.80
75451;DHT22;64029;48.244;9.188;2023-10-31T00:12:27;10.10;90.90
75451;DHT22;64029;48.244;9.188;2023-10-31T00:14:54;10.10;90.80
75451;DHT22;64029;48.244;9.188;2023-10-31T00:17:21;10.10;90.80
75451;DHT22;64029;48.244;9.188;2023-10-31T00:19:47;10.10;90.80
75451;DHT22;64029;48.244;9.188;2023-10-31T00:22:16;10.10;90.70
75451;DHT22;64029;48.244;9.188;2023-10-31T00:24:43;10.10;90.80
75451;DHT22;64029;48.244;9.188;2023-10-31T00:27:10;10.10;90.90
75451;DHT22;64029;48.244;9.188;2023-10-31T00:29:37;10.00;90.90
75451;DHT22;64029;48.244;9.188;2023-10-31T00:32:04;10.00;91.00
75451;DHT22;64029;48.244;9.188;2023-10-31T00:34:30;10.00;90.90
75451;DHT22;64029;48.244;9.188;2023-10-31T00:36:57;10.00;90.90
75451;DHT22;64029;48.244;9.188;2023-10-31T00:39:25;10.00;90.80
75451;DHT22;64029;48.244;9.188;2023-10-31T00:41:52;10.00;90.80
75451;DHT22;64029;48.244;9.188;2023-10-31T00:44:19;10.00;90.80
75451;DHT22;64029;48.244;9.188;2023-10-31T00:46:46;10.00;90.90
75451;DHT22;64029;48.244;9.188;2023-10-31T00:49:13;9.90;91.40
75451;DHT22;64029;48.244;9.188;2023-10-31T00:51:39;9.90;91.40
75451;DHT22;64029;48.244;9.188;2023-10-31T00:54:06;9.90;91.40
75451;DHT22;64029;48.244;9.188;2023-10-31T00:56:34;9.90;91.70
75451;DHT22;64029;48.244;9.188;2023-10-31T00:59:04;9.90;91.40
75451;DHT22;64029;48.244;9.188;2023-10-31T01:01:31;9.90;91.40
75451;DHT22;64029;48.244;9.188;2023-10-31T01:03:58;9.90;91.40
75451;DHT22;64029;48.244;9.188;2023-10-31T01:06:25;9.80;91.30
75451;DHT22;64029;48.244;9.188;2023-10-31T01:08:51;9.80;91.30
75451;DHT22;64029;48.244;9.188;2023-10-31T01:11:18;9.80;91.30
75451;DHT22;64029;48.244;9.188;2023-10-31T01:13:46;9.80;91.30
75451;DHT22;64029;48.244;9.188;2023-10-31T01:16:13;9.80;91.20
75451;DHT22;64029;48.244;9.188;2023-10-31T01:18:40;9.80;91.20
75451;DHT22;64029;48.244;9.188;2023-10-31T01:21:07;9.80;91.10
75451;DHT22;64029;48.244;9.188;2023-10-31T01:23:34;9.80;91.10
75451;DHT22;64029;48.244;9.188;2023-10-31T01:26:01;9.80;91.00
75451;DHT22;64029;48.244;9.188;2023-10-31T01:28:28;9.80;91.00
75451;DHT22;64029;48.244;9.188;2023-10-31T01:30:56;9.70;90.90
75451;DHT22;64029;48.244;9.188;2023-10-31T01:33:23;9.80;90.90
75451;DHT22;64029;48.244;9.188;2023-10-31T01:35:50;9.70;90.80
75451;DHT22;64029;48.244;9.188;2023-10-31T01:38:17;9.70;90.80
75451;DHT22;64029;48.244;9.188;2023-10-31T01:40:43;9.70;90.80
75451;DHT22;64029;48.244;9.188;2023-10-31T01:43:11;9.70;90.80
75451;DHT22;64029;48.244;9.188;2023-10-31T01:45:37;9.70;90.80
75451;DHT22;64029;48.244;9.188;2023-10-31T01:48:06;9.70;90.80
75451;DHT22;64029;48.244;9.188;2023-10-31T01:50:33;9.60;90.70
75451;DHT22;64029;48.244;9.188;2023-10-31T01:53:00;9.70;90.80
75451;DHT22;64029;48.244;9.188;2023-10-31T01:55:26;9.60;90.80
75451;DHT22;64029;48.244;9.188;2023-10-31T01:57:55;9.60;90.90
75451;DHT22;64029;48.244;9.188;2023-10-31T02:00:21;9.60;91.00
75451;DHT22;64029;48.244;9.188;2023-10-31T02:02:52;9.60;91.10
75451;DHT22;64029;48.244;9.188;2023-10-31T02:05:21;9.60;90.90
75451;DHT22;64029;48.244;9.188;2023-10-31T02:07:47;9.50;90.80
75451;DHT22;64029;48.244;9.188;2023-10-31T02:10:14;9.50;90.80
75451;DHT22;64029;48.244;9.188;2023-10-31T02:12:41;9.50;90.70
75451;DHT22;64029;48.244;9.188;2023-10-31T02:15:09;9.50;90.70
75451;DHT22;64029;48.244;9.188;2023-10-31T02:17:37;9.50;90.70
75451;DHT22;64029;48.244;9.188;2023-10-31T02:20:04;9.50;90.70
75451;DHT22;64029;48.244;9.188;2023-10-31T02:22:33;9.50;90.60
75451;DHT22;64029;48.244;9.188;2023-10-31T02:24:59;9.50;90.60
75451;DHT22;64029;48.244;9.188;2023-10-31T02:27:26;9.50;90.50
75451;DHT22;64029;48.244;9.188;2023-10-31T02:29:53;9.50;90.50
75451;DHT22;64029;48.244;9.188;2023-10-31T02:32:20;9.50;90.50
75451;DHT22;64029;48.244;9.188;2023-10-31T02:34:47;9.50;90.50
75451;DHT22;64029;48.244;9.188;2023-10-31T02:37:14;9.50;90.60
75451;DHT22;64029;48.244;9.188;2023-10-31T02:39:42;9.40;90.60
75451;DHT22;64029;48.244;9.188;2023-10-31T02:42:09;9.40;90.50
75451;DHT22;64029;48.244;9.188;2023-10-31T02:44:36;9.40;90.40
75451;DHT22;64029;48.244;9.188;2023-10-31T02:47:03;9.40;90.40
75451;DHT22;64029;48.244;9.188;2023-10-31T02:49:30;9.40;90.40
75451;DHT22;64029;48.244;9.188;2023-10-31T02:51:57;9.40;90.30
75451;DHT22;64029;48.244;9.188;2023-10-31T02:54:23;9.40;90.40
75451;DHT22;64029;48.244;9.188;2023-10-31T02:56:51;9.30;90.40
75451;DHT22;64029;48.244;9.188;2023-10-31T02:59:18;9.30;90.50
75451;DHT22;64029;48.244;9.188;2023-10-31T03:01:45;9.30;90.60
75451;DHT22;64029;48.244;9.188;2023-10-31T03:04:12;9.30;90.60
75451;DHT22;64029;48.244;9.188;2023-10-31T03:06:39;9.30;90.70
75451;DHT22;64029;48.244;9.188;2023-10-31T03:09:06;9.20;90.70
75451;DHT22;64029;48.244;9.188;2023-10-31T03:11:33;9.20;90.70
75451;DHT22;64029;48.244;9.188;2023-10-31T03:14:02;9.20;90.70
75451;DHT22;64029;48.244;9.188;2023-10-31T03:16:28;9.20;90.70
75451;DHT22;64029;48.244;9.188;2023-10-31T03:18:56;9.20;90.60
75451;DHT22;64029;48.244;9.188;2023-10-31T03:21:22;9.20;90.50
75451;DHT22;64029;48.244;9.188;2023-10-31T03:23:50;9.20;90.40
75451;DHT22;64029;48.244;9.188;2023-10-31T03:26:19;9.20;90.70
75451;DHT22;64029;48.244;9.188;2023-10-31T03:28:46;9.20;90.40
75451;DHT22;64029;48.244;9.188;2023-10-31T03:31:14;9.20;90.40
75451;DHT22;64029;48.244;9.188;2023-10-31T03:33:41;9.10;90.70
75451;DHT22;64029;48.244;9.188;2023-10-31T03:36:09;9.10;90.50
75451;DHT22;64029;48.244;9.188;2023-10-31T03:38:36;9.10;90.60
75451;DHT22;64029;48.244;9.188;2023-10-31T03:41:03;9.10;90.70
75451;DHT22;64029;48.244;9.188;2023-10-31T03:43:30;9.10;90.80
75451;DHT22;64029;48.244;9.188;2023-10-31T03:45:57;9.00;90.70
75451;DHT22;64029;48.244;9.188;2023-10-31T03:48:25;9.00;90.70
75451;DHT22;64029;48.244;9.188;2023-10-31T03:50:53;9.10;90.70
75451;DHT22;64029;48.244;9.188;2023-10-31T03:53:19;9.00;90.70
75451;DHT22;64029;48.244;9.188;2023-10-31T03:55:46;9.00;90.70
75451;DHT22;64029;48.244;9.188;2023-10-31T03:58:13;9.00;90.70
75451;DHT22;64029;48.244;9.188;2023-10-31T04:00:40;9.00;90.70
75451;DHT22;64029;48.244;9.188;2023-10-31T04:03:07;9.00;90.60
75451;DHT22;64029;48.244;9.188;2023-10-31T04:05:35;9.00;90.60
75451;DHT22;64029;48.244;9.188;2023-10-31T04:08:03;9.00;90.60
75451;DHT22;64029;48.244;9.188;2023-10-31T04:10:30;9.00;90.60
75451;DHT22;64029;48.244;9.188;2023-10-31T04:12:57;9.00;90.50
75451;DHT22;64029;48.244;9.188;2023-10-31T04:15:23;9.00;90.50
75451;DHT22;64029;48.244;9.188;2023-10-31T04:17:50;9.00;90.50
75451;DHT22;64029;48.244;9.188;2023-10-31T04:20:17;9.00;90.60
75451;DHT22;64029;48.244;9.188;2023-10-31T04:22:45;9.00;90.60
75451;DHT22;64029;48.244;9.188;2023-10-31T04:25:12;9.00;90.60
75451;DHT22;64029;48.244;9.188;2023-10-31T04:27:39;9.00;90.60
75451;DHT22;64029;48.244;9.188;2023-10-31T04:30:06;9.00;90.60
75451;DHT22;64029;48.244;9.188;2023-10-31T04:32:33;9.00;90.60
75451;DHT22;64029;48.244;9.188;2023-10-31T04:35:00;9.00;90.60
75451;DHT22;64029;48.244;9.188;2023-10-31T04:37:27;9.00;90.50
75451;DHT22;64029;48.244;9.188;2023-10-31T04:39:55;9.00;90.70
75451;DHT22;64029;48.244;9.188;2023-10-31T04:42:22;9.00;90.60
75451;DHT22;64029;48.244;9.188;2023-10-31T04:44:48;9.00;90.60
75451;DHT22;64029;48.244;9.188;2023-10-31T04:47:15;9.00;90.50
75451;DHT22;64029;48.244;9.188;2023-10-31T04:49:42;9.00;90.50
75451;DHT22;64029;48.244;9.188;2023-10-31T04:52:09;9.00;90.50
75451;DHT22;64029;48.244;9.188;2023-10-31T04:54:35;9.00;90.50
75451;DHT22;64029;48.244;9.188;2023-10-31T04:57:04;8.90;90.50
75451;DHT22;64029;48.244;9.188;2023-10-31T04:59:31;8.90;90.50
75451;DHT22;64029;48.244;9.188;2023-10-31T05:01:58;8.90;90.40
75451;DHT22;64029;48.244;9.188;2023-10-31T05:04:24;8.90;90.50
75451;DHT22;64029;48.244;9.188;2023-10-31T05:06:51;8.90;90.60
75451;DHT22;64029;48.244;9.188;2023-10-31T05:09:18;8.90;90.50
75451;DHT22;64029;48.244;9.188;2023-10-31T05:11:45;8.90;90.50
75451;DHT22;64029;48.244;9.188;2023-10-31T05:14:13;8.90;90.50
75451;DHT22;64029;48.244;9.188;2023-10-31T05:16:41;8.90;90.40
75451;DHT22;64029;48.244;9.188;2023-10-31T05:19:08;8.90;90.40
75451;DHT22;64029;48.244;9.188;2023-10-31T05:21:35;8.90;90.40
75451;DHT22;64029;48.244;9.188;2023-10-31T05:24:01;8.90;90.60
75451;DHT22;64029;48.244;9.188;2023-10-31T05:26:29;8.90;90.40
75451;DHT22;64029;48.244;9.188;2023-10-31T05:28:56;8.80;90.20
75451;DHT22;64029;48.244;9.188;2023-10-31T05:31:27;8.80;90.20
75451;DHT22;64029;48.244;9.188;2023-10-31T05:33:53;8.80;90.30
75451;DHT22;64029;48.244;9.188;2023-10-31T05:36:21;8.80;90.20
75451;DHT22;64029;48.244;9.188;2023-10-31T05:38:48;8.80;90.10
75451;DHT22;64029;48.244;9.188;2023-10-31T05:41:15;8.80;90.10
75451;DHT22;64029;48.244;9.188;2023-10-31T05:43:42;8.80;90.10
75451;DHT22;64029;48.244;9.188;2023-10-31T05:46:08;8.80;90.10
75451;DHT22;64029;48.244;9.188;2023-10-31T05:48:40;8.80;90.10
75451;DHT22;64029;48.244;9.188;2023-10-31T05:51:11;8.70;90.20
75451;DHT22;64029;48.244;9.188;2023-10-31T05:53:39;8.70;90.20
75451;DHT22;64029;48.244;9.188;2023-10-31T05:56:07;8.70;90.20
75451;DHT22;64029;48.244;9.188;2023-10-31T05:58:34;8.70;90.20
75451;DHT22;64029;48.244;9.188;2023-10-31T06:01:01;8.60;90.10
75451;DHT22;64029;48.244;9.188;2023-10-31T06:03:28;8.60;90.20
75451;DHT22;64029;48.244;9.188;2023-10-31T06:05:57;8.60;90.20
75451;DHT22;64029;48.244;9.188;2023-10-31T06:08:24;8.60;90.30
75451;DHT22;64029;48.244;9.188;2023-10-31T06:10:53;8.60;90.30
75451;DHT22;64029;48.244;9.188;2023-10-31T06:13:20;8.50;90.30
75451;DHT22;64029;48.244;9.188;2023-10-31T06:15:47;8.50;90.70
75451;DHT22;64029;48.244;9.188;2023-10-31T06:18:14;8.50;90.30
75451;DHT22;64029;48.244;9.188;2023-10-31T06:20:42;8.50;90.20
75451;DHT22;64029;48.244;9.188;2023-10-31T06:23:10;8.50;90.20
75451;DHT22;64029;48.244;9.188;2023-10-31T06:25:37;8.50;90.20
75451;DHT22;64029;48.244;9.188;2023-10-31T06:28:04;8.50;90.10
75451;DHT22;64029;48.244;9.188;2023-10-31T06:30:33;8.50;90.10
75451;DHT22;64029;48.244;9.188;2023-10-31T06:33:00;8.50;90.10
75451;DHT22;64029;48.244;9.188;2023-10-31T06:35:27;8.40;90.10
75451;DHT22;64029;48.244;9.188;2023-10-31T06:37:55;8.40;90.10
75451;DHT22;64029;48.244;9.188;2023-10-31T06:40:24;8.40;90.10
75451;DHT22;64029;48.244;9.188;2023-10-31T06:42:51;8.40;90.10
75451;DHT22;64029;48.244;9.188;2023-10-31T06:45:18;8.40;90.10
75451;DHT22;64029;48.244;9.188;2023-10-31T06:47:45;8.40;90.20
75451;DHT22;64029;48.244;9.188;2023-10-31T06:50:12;8.40;90.20
75451;DHT22;64029;48.244;9.188;2023-10-31T06:52:39;8.40;90.40
75451;DHT22;64029;48.244;9.188;2023-10-31T06:55:06;8.30;90.50
75451;DHT22;64029;48.244;9.188;2023-10-31T06:57:34;8.30;90.40
75451;DHT22;64029;48.244;9.188;2023-10-31T07:00:01;8.30;90.40
75451;DHT22;64029;48.244;9.188;2023-10-31T07:02:28;8.30;90.60
75451;DHT22;64029;48.244;9.188;2023-10-31T07:04:55;8.30;90.50
75451;DHT22;64029;48.244;9.188;2023-10-31T07:07:22;8.30;90.60
75451;DHT22;64029;48.244;9.188;2023-10-31T07:09:49;8.20;90.50
75451;DHT22;64029;48.244;9.188;2023-10-31T07:12:15;8.30;90.50
75451;DHT22;64029;48.244;9.188;2023-10-31T07:14:44;8.20;90.50
75451;DHT22;64029;48.244;9.188;2023-10-31T07:17:10;8.20;90.50
75451;DHT22;64029;48.244;9.188;2023-10-31T07:19:37;8.20;90.70
75451;DHT22;64029;48.244;9.188;2023-10-31T07:22:04;8.20;90.70
75451;DHT22;64029;48.244;9.188;2023-10-31T07:24:31;8.20;90.70
75451;DHT22;64029;48.244;9.188;2023-10-31T07:26:58;8.20;90.70
75451;DHT22;64029;48.244;9.188;2023-10-31T07:29:24;8.20;90.80
75451;DHT22;64029;48.244;9.188;2023-10-31T07:31:55;8.20;90.70
75451;DHT22;64029;48.244;9.188;2023-10-31T07:34:23;8.20;90.70
75451;DHT22;64029;48.244;9.188;2023-10-31T07:36:50;8.20;90.60
75451;DHT22;64029;48.244;9.188;2023-10-31T07:39:17;8.20;90.60
75451;DHT22;64029;48.244;9.188;2023-10-31T07:41:44;8.20;90.90
75451;DHT22;64029;48.244;9.188;2023-10-31T07:44:11;8.20;90.80
75451;DHT22;64029;48.244;9.188;2023-10-31T07:46:38;8.30;90.90
75451;DHT22;64029;48.244;9.188;2023-10-31T07:49:06;8.20;90.90
75451;DHT22;64029;48.244;9.188;2023-10-31T07:51:33;8.30;90.80
75451;DHT22;64029;48.244;9.188;2023-10-31T07:54:00;8.30;91.10
75451;DHT22;64029;48.244;9.188;2023-10-31T07:56:27;8.30;90.90
75451;DHT22;64029;48.244;9.188;2023-10-31T07:58:54;8.30;90.80
75451;DHT22;64029;48.244;9.188;2023-10-31T08:01:22;8.30;90.80
75451;DHT22;64029;48.244;9.188;2023-10-31T08:03:49;8.30;90.80
75451;DHT22;64029;48.244;9.188;2023-10-31T08:06:17;8.40;91.00
75451;DHT22;64029;48.244;9.188;2023-10-31T08:08:44;8.40;90.90
75451;DHT22;64029;48.244;9.188;2023-10-31T08:11:11;8.40;91.00
75451;DHT22;64029;48.244;9.188;2023-10-31T08:13:38;8.40;90.80
75451;DHT22;64029;48.244;9.188;2023-10-31T08:16:06;8.40;90.80
75451;DHT22;64029;48.244;9.188;2023-10-31T08:18:34;8.40;90.80
75451;DHT22;64029;48.244;9.188;2023-10-31T08:21:01;8.40;90.90
75451;DHT22;64029;48.244;9.188;2023-10-31T08:23:29;8.40;90.80
75451;DHT22;64029;48.244;9.188;2023-10-31T08:25:57;8.50;90.80
75451;DHT22;64029;48.244;9.188;2023-10-31T08:28:24;8.50;90.90
75451;DHT22;64029;48.244;9.188;2023-10-31T08:30:50;8.50;91.00
75451;DHT22;64029;48.244;9.188;2023-10-31T08:33:17;8.60;91.00
75451;DHT22;64029;48.244;9.188;2023-10-31T08:35:44;8.60;91.00
75451;DHT22;64029;48.244;9.188;2023-10-31T08:38:13;8.60;90.80
75451;DHT22;64029;48.244;9.188;2023-10-31T08:40:41;8.60;90.90
75451;DHT22;64029;48.244;9.188;2023-10-31T08:43:08;8.60;90.90
75451;DHT22;64029;48.244;9.188;2023-10-31T08:45:34;8.70;90.90
75451;DHT22;64029;48.244;9.188;2023-10-31T08:48:01;8.70;90.90
75451;DHT22;64029;48.244;9.188;2023-10-31T08:50:28;8.70;90.90
75451;DHT22;64029;48.244;9.188;2023-10-31T08:52:55;8.70;90.90
75451;DHT22;64029;48.244;9.188;2023-10-31T08:55:22;8.80;90.90
75451;DHT22;64029;48.244;9.188;2023-10-31T08:57:50;8.80;90.90
75451;DHT22;64029;48.244;9.188;2023-10-31T09:00:18;8.80;90.90
75451;DHT22;64029;48.244;9.188;2023-10-31T09:02:46;8.80;90.90
75451;DHT22;64029;48.244;9.188;2023-10-31T09:05:13;8.90;90.90
75451;DHT22;64029;48.244;9.188;2023-10-31T09:07:39;8.90;91.00
75451;DHT22;64029;48.244;9.188;2023-10-31T09:10:07;8.90;90.90
75451;DHT22;64029;48.244;9.188;2023-10-31T09:12:34;9.00;91.00
75451;DHT22;64029;48.244;9.188;2023-10-31T09:15:03;9.00;91.00
75451;DHT22;64029;48.244;9.188;2023-10-31T09:17:30;9.00;91.00
75451;DHT22;64029;48.244;9.188;2023-10-31T09:19:57;9.00;91.10
75451;DHT22;64029;48.244;9.188;2023-10-31T09:22:24;9.10;91.10
75451;DHT22;64029;48.244;9.188;2023-10-31T09:24:51;9.10;91.10
75451;DHT22;64029;48.244;9.188;2023-10-31T09:27:18;9.10;91.00
75451;DHT22;64029;48.244;9.188;2023-10-31T09:29:44;9.20;91.10
75451;DHT22;64029;48.244;9.188;2023-10-31T09:32:14;9.20;91.10
75451;DHT22;64029;48.244;9.188;2023-10-31T09:34:41;9.30;91.20
75451;DHT22;64029;48.244;9.188;2023-10-31T09:37:08;9.30;91.10
75451;DHT22;64029;48.244;9.188;2023-10-31T09:39:35;9.30;91.00
75451;DHT22;64029;48.244;9.188;2023-10-31T09:42:02;9.40;91.10
75451;DHT22;64029;48.244;9.188;2023-10-31T09:44:29;9.40;91.10
75451;DHT22;64029;48.244;9.188;2023-10-31T09:46:55;9.40;91.10
75451;DHT22;64029;48.244;9.188;2023-10-31T09:49:25;9.40;91.00
75451;DHT22;64029;48.244;9.188;2023-10-31T09:51:51;9.50;91.00
75451;DHT22;64029;48.244;9.188;2023-10-31T09:54:19;9.50;91.10
75451;DHT22;64029;48.244;9.188;2023-10-31T09:56:46;9.50;91.00
75451;DHT22;64029;48.244;9.188;2023-10-31T09:59:14;9.50;91.00
75451;DHT22;64029;48.244;9.188;2023-10-31T10:01:41;9.60;91.00
75451;DHT22;64029;48.244;9.188;2023-10-31T10:04:08;9.60;90.90
75451;DHT22;64029;48.244;9.188;2023-10-31T10:06:40;9.60;90.90
75451;DHT22;64029;48.244;9.188;2023-10-31T10:09:07;9.60;90.90
75451;DHT22;64029;48.244;9.188;2023-10-31T10:11:34;9.60;90.90
75451;DHT22;64029;48.244;9.188;2023-10-31T10:14:00;9.70;91.00
75451;DHT22;64029;48.244;9.188;2023-10-31T10:16:29;9.70;90.90
75451;DHT22;64029;48.244;9.188;2023-10-31T10:18:56;9.70;90.80
75451;DHT22;64029;48.244;9.188;2023-10-31T10:21:25;9.80;90.90
75451;DHT22;64029;48.244;9.188;2023-10-31T10:23:53;9.80;90.80
75451;DHT22;64029;48.244;9.188;2023-10-31T10:26:20;9.80;90.80
75451;DHT22;64029;48.244;9.188;2023-10-31T10:28:51;9.80;90.70
75451;DHT22;64029;48.244;9.188;2023-10-31T10:31:18;9.90;90.80
75451;DHT22;64029;48.244;9.188;2023-10-31T10:33:45;9.90;90.70
75451;DHT22;64029;48.244;9.188;2023-10-31T10:36:13;9.90;90.70
75451;DHT22;64029;48.244;9.188;2023-10-31T10:38:42;9.90;90.50
75451;DHT22;64029;48.244;9.188;2023-10-31T10:41:14;9.90;90.50
75451;DHT22;64029;48.244;9.188;2023-10-31T10:43:43;10.00;89.80
75451;DHT22;64029;48.244;9.188;2023-10-31T10:46:12;9.90;90.40
75451;DHT22;64029;48.244;9.188;2023-10-31T10:48:45;10.00;90.10
75451;DHT22;64029;48.244;9.188;2023-10-31T10:51:17;10.00;90.00
75451;DHT22;64029;48.244;9.188;2023-10-31T10:53:49;10.00;90.00
75451;DHT22;64029;48.244;9.188;2023-10-31T10:56:21;10.00;90.00
75451;DHT22;64029;48.244;9.188;2023-10-31T10:58:55;10.00;90.00
75451;DHT22;64029;48.244;9.188;2023-10-31T11:01:23;10.10;90.10
75451;DHT22;64029;48.244;9.188;2023-10-31T11:03:52;10.10;90.10
75451;DHT22;64029;48.244;9.188;2023-10-31T11:06:19;10.20;90.10
75451;DHT22;64029;48.244;9.188;2023-10-31T11:08:47;10.20;90.10
75451;DHT22;64029;48.244;9.188;2023-10-31T11:11:14;10.20;90.20
75451;DHT22;64029;48.244;9.188;2023-10-31T11:13:44;10.20;90.20
75451;DHT22;64029;48.244;9.188;2023-10-31T11:16:15;10.20;90.00
75451;DHT22;64029;48.244;9.188;2023-10-31T11:18:44;10.20;89.80
75451;DHT22;64029;48.244;9.188;2023-10-31T11:21:11;10.30;90.00
75451;DHT22;64029;48.244;9.188;2023-10-31T11:23:37;10.30;89.70
75451;DHT22;64029;48.244;9.188;2023-10-31T11:26:07;10.30;89.90
75451;DHT22;64029;48.244;9.188;2023-10-31T11:28:36;10.30;88.40
75451;DHT22;64029;48.244;9.188;2023-10-31T11:31:04;10.40;89.20
75451;DHT22;64029;48.244;9.188;2023-10-31T11:33:33;10.40;89.20
75451;DHT22;64029;48.244;9.188;2023-10-31T11:36:00;10.40;88.60
75451;DHT22;64029;48.244;9.188;2023-10-31T11:38:32;10.40;88.80
75451;DHT22;64029;48.244;9.188;2023-10-31T11:41:00;10.50;89.30
75451;DHT22;64029;48.244;9.188;2023-10-31T11:46:20;10.50;88.30
75451;DHT22;64029;48.244;9.188;2023-10-31T11:48:50;10.50;88.80
75451;DHT22;64029;48.244;9.188;2023-10-31T11:51:17;10.50;88.00
75451;DHT22;64029;48.244;9.188;2023-10-31T11:53:44;10.60;88.80
75451;DHT22;64029;48.244;9.188;2023-10-31T11:56:12;10.60;88.00
75451;DHT22;64029;48.244;9.188;2023-10-31T11:58:38;10.60;88.20
75451;DHT22;64029;48.244;9.188;2023-10-31T12:01:06;10.60;89.00
75451;DHT22;64029;48.244;9.188;2023-10-31T12:03:39;10.60;87.30
75451;DHT22;64029;48.244;9.188;2023-10-31T12:06:07;10.60;87.80
75451;DHT22;64029;48.244;9.188;2023-10-31T12:08:37;10.70;86.40
75451;DHT22;64029;48.244;9.188;2023-10-31T12:11:06;10.70;86.00
75451;DHT22;64029;48.244;9.188;2023-10-31T12:13:34;10.70;87.50
75451;DHT22;64029;48.244;9.188;2023-10-31T12:16:01;10.70;87.70
75451;DHT22;64029;48.244;9.188;2023-10-31T12:18:28;10.70;87.60
75451;DHT22;64029;48.244;9.188;2023-10-31T12:20:56;10.80;87.30
75451;DHT22;64029;48.244;9.188;2023-10-31T12:23:23;10.70;85.50
75451;DHT22;64029;48.244;9.188;2023-10-31T12:25:51;10.70;85.70
75451;DHT22;64029;48.244;9.188;2023-10-31T12:28:18;10.70;87.00
75451;DHT22;64029;48.244;9.188;2023-10-31T12:30:45;10.70;86.60
75451;DHT22;64029;48.244;9.188;2023-10-31T12:33:13;10.70;86.30
75451;DHT22;64029;48.244;9.188;2023-10-31T12:35:40;10.80;86.80
75451;DHT22;64029;48.244;9.188;2023-10-31T12:38:10;10.70;85.70
75451;DHT22;64029;48.244;9.188;2023-10-31T12:40:37;10.70;86.00
75451;DHT22;64029;48.244;9.188;2023-10-31T12:43:05;10.70;86.10
75451;DHT22;64029;48.244;9.188;2023-10-31T12:45:32;10.60;85.90
75451;DHT22;64029;48.244;9.188;2023-10-31T12:48:03;10.70;86.30
75451;DHT22;64029;48.244;9.188;2023-10-31T12:50:30;10.70;86.30
75451;DHT22;64029;48.244;9.188;2023-10-31T12:52:58;10.70;86.50
75451;DHT22;64029;48.244;9.188;2023-10-31T12:55:28;10.80;85.90
75451;DHT22;64029;48.244;9.188;2023-10-31T12:57:55;10.70;86.30
75451;DHT22;64029;48.244;9.188;2023-10-31T13:00:30;10.80;86.50
75451;DHT22;64029;48.244;9.188;2023-10-31T13:02:59;10.80;84.40
75451;DHT22;64029;48.244;9.188;2023-10-31T13:05:27;10.80;85.90
75451;DHT22;64029;48.244;9.188;2023-10-31T13:07:54;10.80;85.70
75451;DHT22;64029;48.244;9.188;2023-10-31T13:10:23;10.80;85.00
75451;DHT22;64029;48.244;9.188;2023-10-31T13:12:52;10.90;86.00
75451;DHT22;64029;48.244;9.188;2023-10-31T13:15:21;10.90;85.60
75451;DHT22;64029;48.244;9.188;2023-10-31T13:17:48;10.90;84.20
75451;DHT22;64029;48.244;9.188;2023-10-31T13:20:17;10.90;84.70
75451;DHT22;64029;48.244;9.188;2023-10-31T13:22:43;11.00;84.40
75451;DHT22;64029;48.244;9.188;2023-10-31T13:25:11;10.90;81.80
75451;DHT22;64029;48.244;9.188;2023-10-31T13:27:40;10.90;83.10
75451;DHT22;64029;48.244;9.188;2023-10-31T13:30:11;11.00;84.30
75451;DHT22;64029;48.244;9.188;2023-10-31T13:32:39;11.00;84.50
75451;DHT22;64029;48.244;9.188;2023-10-31T13:35:06;11.00;84.20
75451;DHT22;64029;48.244;9.188;2023-10-31T13:37:34;11.00;83.80
75451;DHT22;64029;48.244;9.188;2023-10-31T13:40:01;11.00;83.90
75451;DHT22;64029;48.244;9.188;2023-10-31T13:42:28;11.00;82.20
75451;DHT22;64029;48.244;9.188;2023-10-31T13:44:55;11.00;83.80
75451;DHT22;64029;48.244;9.188;2023-10-31T13:47:23;11.00;84.40
75451;DHT22;64029;48.244;9.188;2023-10-31T13:49:50;11.00;83.10
75451;DHT22;64029;48.244;9.188;2023-10-31T13:52:17;11.10;84.00
75451;DHT22;64029;48.244;9.188;2023-10-31T13:54:44;11.10;83.50
75451;DHT22;64029;48.244;9.188;2023-10-31T13:57:11;11.00;83.40
75451;DHT22;64029;48.244;9.188;2023-10-31T13:59:39;11.00;83.40
75451;DHT22;64029;48.244;9.188;2023-10-31T14:02:06;11.00;83.90
75451;DHT22;64029;48.244;9.188;2023-10-31T14:04:34;11.10;84.10
75451;DHT22;64029;48.244;9.188;2023-10-31T14:07:01;11.10;84.30
75451;DHT22;64029;48.244;9.188;2023-10-31T14:09:28;11.10;84.50
75451;DHT22;64029;48.244;9.188;2023-10-31T14:11:56;11.10;83.50
75451;DHT22;64029;48.244;9.188;2023-10-31T14:14:23;11.10;84.20
75451;DHT22;64029;48.244;9.188;2023-10-31T14:16:49;11.10;83.70
75451;DHT22;64029;48.244;9.188;2023-10-31T14:19:16;11.10;84.20
75451;DHT22;64029;48.244;9.188;2023-10-31T14:21:44;11.10;85.10
75451;DHT22;64029;48.244;9.188;2023-10-31T14:24:11;11.10;84.30
75451;DHT22;64029;48.244;9.188;2023-10-31T14:26:38;11.10;83.80
75451;DHT22;64029;48.244;9.188;2023-10-31T14:29:05;11.10;83.60
75451;DHT22;64029;48.244;9.188;2023-10-31T14:31:38;11.10;83.90
75451;DHT22;64029;48.244;9.188;2023-10-31T14:34:05;11.00;83.60
75451;DHT22;64029;48.244;9.188;2023-10-31T14:36:32;11.10;84.10
75451;DHT22;64029;48.244;9.188;2023-10-31T14:39:00;11.10;84.20
75451;DHT22;64029;48.244;9.188;2023-10-31T14:41:27;11.10;84.20
75451;DHT22;64029;48.244;9.188;2023-10-31T14:43:58;11.10;84.20
75451;DHT22;64029;48.244;9.188;2023-10-31T14:46:25;11.00;83.80
75451;DHT22;64029;48.244;9.188;2023-10-31T14:48:52;11.00;83.60
75451;DHT22;64029;48.244;9.188;2023-10-31T14:51:19;10.90;83.70
75451;DHT22;64029;48.244;9.188;2023-10-31T14:53:46;11.00;84.00
75451;DHT22;64029;48.244;9.188;2023-10-31T14:56:14;10.90;83.50
75451;DHT22;64029;48.244;9.188;2023-10-31T14:58:41;11.00;84.10
75451;DHT22;64029;48.244;9.188;2023-10-31T15:01:07;10.90;83.80
75451;DHT22;64029;48.244;9.188;2023-10-31T15:03:34;10.90;84.00
75451;DHT22;64029;48.244;9.188;2023-10-31T15:06:01;10.90;84.20
75451;DHT22;64029;48.244;9.188;2023-10-31T15:08:28;10.90;84.30
75451;DHT22;64029;48.244;9.188;2023-10-31T15:10:55;10.90;84.20
75451;DHT22;64029;48.244;9.188;2023-10-31T15:13:23;10.90;83.90
75451;DHT22;64029;48.244;9.188;2023-10-31T15:15:50;10.80;84.00
75451;DHT22;64029;48.244;9.188;2023-10-31T15:18:17;10.90;84.20
75451;DHT22;64029;48.244;9.188;2023-10-31T15:20:44;10.90;84.10
75451;DHT22;64029;48.244;9.188;2023-10-31T15:23:10;10.80;83.90
75451;DHT22;64029;48.244;9.188;2023-10-31T15:25:39;10.80;83.80
75451;DHT22;64029;48.244;9.188;2023-10-31T15:28:06;10.80;84.70
75451;DHT22;64029;48.244;9.188;2023-10-31T15:30:35;10.80;84.20
75451;DHT22;64029;48.244;9.188;2023-10-31T15:33:01;10.70;83.90
75451;DHT22;64029;48.244;9.188;2023-10-31T15:35:28;10.70;84.50
75451;DHT22;64029;48.244;9.188;2023-10-31T15:37:55;10.70;84.40
75451;DHT22;64029;48.244;9.188;2023-10-31T15:40:22;10.70;84.40
75451;DHT22;64029;48.244;9.188;2023-10-31T15:42:48;10.80;84.50